Time;durP1;ratioP1;P1;durP2;ratioP2;P2;SDS_P1;SDS_P2;PMS_P1;PMS_P2;Temp;Humidity;BMP_temperature;BMP_pressure;BME280_temperature;BME280_humidity;BME280_pressure;Samples;Min_cycle;Max_cycle;Signal;HPM_P1;HPM_P2
2023/05/25 00:02:23;;;;;;;3.87;2.90;;;;;;;8.76;86.77;98558.53;5091205;28;20219;-76
2023/05/25 00:04:50;;;;;;;6.90;3.40;;;;;;;8.73;88.16;98564.81;5091197;28;20287;-75
2023/05/25 00:07:17;;;;;;;7.57;3.07;;;;;;;8.73;88.44;98563.97;5091135;28;20690;-75
2023/05/25 00:09:45;;;;;;;6.83;3.17;;;;;;;8.71;88.15;98563.22;5090493;28;20256;-75
2023/05/25 00:12:14;;;;;;;6.70;3.27;;;;;;;8.69;87.91;98557.19;5091305;28;20304;-75
2023/05/25 00:14:41;;;;;;;6.80;3.17;;;;;;;8.67;87.94;98564.31;5091284;28;20206;-75
2023/05/25 00:17:09;;;;;;;9.70;3.57;;;;;;;8.80;86.08;98552.16;5091112;28;20571;-75
2023/05/25 00:19:36;;;;;;;5.37;2.60;;;;;;;8.85;83.83;98543.06;5090346;28;20210;-76
2023/05/25 00:22:02;;;;;;;9.33;2.90;;;;;;;8.84;83.83;98536.09;5091076;28;20207;-76
2023/05/25 00:24:30;;;;;;;8.43;3.20;;;;;;;8.79;84.19;98537.28;5091169;28;20206;-76
2023/05/25 00:26:57;;;;;;;10.27;3.43;;;;;;;8.75;84.71;98535.75;5091045;28;20789;-75
2023/05/25 00:29:25;;;;;;;7.03;3.30;;;;;;;8.80;84.24;98538.97;5090284;28;20230;-76
2023/05/25 00:31:52;;;;;;;8.63;3.43;;;;;;;8.91;83.64;98536.59;5090667;28;20257;-75
2023/05/25 00:34:18;;;;;;;7.03;2.93;;;;;;;9.00;83.41;98530.81;5090860;28;20218;-75
2023/05/25 00:36:47;;;;;;;6.83;2.80;;;;;;;9.08;82.22;98531.22;5090727;28;20444;-75
2023/05/25 00:39:13;;;;;;;6.07;3.43;;;;;;;9.21;82.40;98526.94;5090350;28;20208;-76
2023/05/25 00:41:43;;;;;;;6.57;3.13;;;;;;;9.38;80.67;98518.91;5090985;28;20214;-75
2023/05/25 00:44:10;;;;;;;6.47;3.23;;;;;;;9.49;80.74;98519.97;5090991;28;20238;-75
2023/05/25 00:46:38;;;;;;;7.97;3.47;;;;;;;9.51;80.04;98517.25;5090764;28;20251;-75
2023/05/25 00:49:04;;;;;;;5.70;2.87;;;;;;;9.58;79.54;98519.44;5090374;28;20260;-76
2023/05/25 00:51:32;;;;;;;9.57;3.13;;;;;;;9.64;79.17;98523.50;5090689;28;20561;-76
2023/05/25 00:53:59;;;;;;;5.93;2.83;;;;;;;9.71;79.30;98514.28;5093673;28;20279;-75
2023/05/25 00:56:30;;;;;;;7.37;3.30;;;;;;;9.80;79.38;98516.38;5094537;28;20242;-76
2023/05/25 00:59:00;;;;;;;8.67;3.53;;;;;;;9.81;79.00;98510.16;5092297;28;20213;-75
2023/05/25 01:01:32;;;;;;;5.83;3.23;;;;;;;9.74;78.95;98508.81;5090699;28;20222;-76
2023/05/25 01:04:03;;;;;;;7.17;2.90;;;;;;;9.83;77.55;98502.97;5091366;28;20329;-75
2023/05/25 01:06:33;;;;;;;5.10;3.03;;;;;;;9.73;77.00;98501.84;5091379;28;20245;-75
2023/05/25 01:09:04;;;;;;;7.10;2.97;;;;;;;9.86;75.46;98494.88;5094003;28;20210;-75
2023/05/25 01:11:33;;;;;;;6.30;3.00;;;;;;;9.87;74.58;98489.53;5093865;28;20238;-75
2023/05/25 01:14:00;;;;;;;6.70;3.17;;;;;;;9.92;73.52;98473.41;5094308;28;20214;-75
2023/05/25 01:16:27;;;;;;;6.73;3.00;;;;;;;9.94;73.52;98480.28;5094084;28;20236;-75
2023/05/25 01:18:53;;;;;;;6.77;2.87;;;;;;;9.98;72.66;98476.50;5094216;28;20214;-75
2023/05/25 01:21:25;;;;;;;6.00;3.27;;;;;;;9.96;73.03;98482.81;5093739;28;20205;-75
2023/05/25 01:23:58;;;;;;;7.97;3.10;;;;;;;9.92;73.53;98481.31;5094186;28;20217;-76
2023/05/25 01:26:29;;;;;;;9.77;2.87;;;;;;;9.87;73.88;98483.38;5093971;28;20234;-75
2023/05/25 01:28:57;;;;;;;12.17;3.53;;;;;;;9.85;73.12;98480.00;5094217;28;20266;-75
2023/05/25 01:31:24;;;;;;;8.83;3.33;;;;;;;9.78;73.54;98487.41;5092964;28;20252;-75
2023/05/25 01:33:52;;;;;;;8.07;3.10;;;;;;;9.81;73.34;98478.47;5094092;28;20214;-75
2023/05/25 01:36:18;;;;;;;7.30;3.43;;;;;;;9.77;74.10;98488.38;5093686;28;20699;-75
2023/05/25 01:38:46;;;;;;;7.00;2.87;;;;;;;9.75;74.12;98489.41;5093833;28;20202;-76
2023/05/25 01:41:13;;;;;;;5.73;3.40;;;;;;;9.67;74.15;98481.09;5092898;28;20206;-75
2023/05/25 01:43:40;;;;;;;9.80;3.37;;;;;;;9.61;74.78;98486.75;5093938;28;20230;-76
2023/05/25 01:46:13;;;;;;;11.47;3.87;;;;;;;9.67;73.85;98483.75;5093888;28;20606;-75
2023/05/25 01:48:48;;;;;;;5.27;2.83;;;;;;;9.76;73.57;98488.44;5093752;28;20583;-76
2023/05/25 01:51:21;;;;;;;5.13;2.90;;;;;;;9.57;74.50;98487.88;5092951;28;20232;-75
2023/05/25 01:53:54;;;;;;;4.37;3.03;;;;;;;9.35;77.29;98509.38;5093409;28;20261;-75
2023/05/25 01:56:22;;;;;;;6.57;3.27;;;;;;;9.30;77.06;98510.59;5093579;28;20238;-76
2023/05/25 01:58:51;;;;;;;6.37;3.30;;;;;;;9.11;78.33;98507.34;5093540;28;20271;-75
2023/05/25 02:01:19;;;;;;;8.83;3.63;;;;;;;8.97;80.10;98516.03;5092568;28;20206;-75
2023/05/25 02:03:48;;;;;;;6.83;3.23;;;;;;;9.01;79.40;98511.41;5093518;28;20210;-75
2023/05/25 02:06:15;;;;;;;5.63;3.07;;;;;;;9.03;78.56;98509.53;5092480;28;20230;-76
2023/05/25 02:08:42;;;;;;;7.57;3.20;;;;;;;9.21;77.00;98497.94;5093378;28;20217;-76
2023/05/25 02:11:13;;;;;;;8.73;3.07;;;;;;;9.21;76.56;98490.88;5092588;28;20227;-76
2023/05/25 02:13:39;;;;;;;9.30;3.63;;;;;;;9.27;76.59;98493.16;5093340;28;20254;-76
2023/05/25 02:16:07;;;;;;;9.20;3.40;;;;;;;9.25;76.55;98499.47;5092991;28;20230;-76
2023/05/25 02:18:33;;;;;;;6.30;3.20;;;;;;;9.17;76.51;98491.97;5092851;28;20560;-75
2023/05/25 02:21:00;;;;;;;6.93;3.30;;;;;;;9.30;76.17;98485.06;5092476;28;20263;-76
2023/05/25 02:23:26;;;;;;;7.83;3.77;;;;;;;9.25;76.12;98486.28;5093018;28;20224;-76
2023/05/25 02:25:53;;;;;;;8.90;3.27;;;;;;;9.14;77.06;98486.91;5092626;28;20242;-75
2023/05/25 02:28:21;;;;;;;10.97;3.60;;;;;;;9.10;76.84;98482.75;5092832;28;20214;-76
2023/05/25 02:30:47;;;;;;;9.50;4.00;;;;;;;8.94;78.55;98488.97;5092028;28;20600;-77
2023/05/25 02:33:14;;;;;;;6.07;3.17;;;;;;;8.78;80.74;98507.44;5093038;28;20220;-76
2023/05/25 02:35:40;;;;;;;6.10;3.57;;;;;;;8.64;82.50;98509.97;5092590;28;20226;-76
2023/05/25 02:38:07;;;;;;;7.27;3.73;;;;;;;8.54;83.47;98511.44;5092831;28;20208;-76
2023/05/25 02:40:33;;;;;;;8.40;4.10;;;;;;;8.53;83.72;98514.16;5092124;28;20243;-76
2023/05/25 02:43:00;;;;;;;9.53;3.73;;;;;;;8.59;82.71;98509.41;5092563;28;20207;-76
2023/05/25 02:45:28;;;;;;;11.30;3.97;;;;;;;8.66;81.46;98499.38;5092940;28;20231;-75
2023/05/25 02:47:57;;;;;;;5.73;3.50;;;;;;;8.79;80.49;98495.09;5092445;28;20215;-76
2023/05/25 02:50:26;;;;;;;8.37;3.73;;;;;;;8.87;79.72;98492.91;5091538;28;20226;-76
2023/05/25 02:52:52;;;;;;;8.97;4.03;;;;;;;8.89;79.38;98493.66;5092271;28;20214;-76
2023/05/25 02:55:19;;;;;;;6.13;3.33;;;;;;;8.88;79.19;98494.59;5092549;28;20701;-76
2023/05/25 02:57:46;;;;;;;6.77;3.83;;;;;;;8.85;79.52;98500.91;5092385;28;20211;-76
2023/05/25 03:00:13;;;;;;;9.43;4.07;;;;;;;8.94;79.47;98507.44;5091574;28;20291;-76
2023/05/25 03:02:41;;;;;;;10.13;3.97;;;;;;;8.85;79.86;98505.31;5092193;28;20237;-76
2023/05/25 03:05:08;;;;;;;9.33;3.83;;;;;;;8.86;79.48;98502.59;5091956;28;20238;-75
2023/05/25 03:07:35;;;;;;;6.47;3.60;;;;;;;8.81;79.67;98506.44;5092148;28;20225;-75
2023/05/25 03:10:01;;;;;;;7.37;3.53;;;;;;;8.76;80.05;98505.84;5091494;28;20206;-75
2023/05/25 03:12:27;;;;;;;8.13;3.80;;;;;;;8.70;81.01;98516.72;5092516;28;20575;-75
2023/05/25 03:14:54;;;;;;;8.10;3.63;;;;;;;8.63;81.45;98524.09;5091781;28;20207;-76
2023/05/25 03:17:20;;;;;;;11.70;4.10;;;;;;;8.75;80.66;98518.16;5091506;28;20241;-75
2023/05/25 03:19:48;;;;;;;7.90;3.87;;;;;;;8.80;80.55;98526.66;5091369;28;20229;-75
2023/05/25 03:22:15;;;;;;;8.23;3.97;;;;;;;8.84;79.84;98514.16;5091761;28;20199;-76
2023/05/25 03:24:41;;;;;;;12.00;4.03;;;;;;;8.81;79.97;98524.88;5091865;28;20205;-75
2023/05/25 03:27:08;;;;;;;9.07;4.20;;;;;;;8.79;80.51;98522.31;5090643;22;20436;-78
2023/05/25 03:29:34;;;;;;;7.57;3.80;;;;;;;8.73;81.45;98524.44;5070757;28;20217;-78
2023/05/25 03:32:01;;;;;;;7.63;3.80;;;;;;;8.75;81.51;98520.78;5071365;28;20685;-78
2023/05/25 03:34:29;;;;;;;12.03;4.17;;;;;;;8.68;82.33;98523.84;5071618;28;20219;-78
2023/05/25 03:36:57;;;;;;;5.50;3.53;;;;;;;8.69;82.63;98528.19;5071317;28;20234;-78
2023/05/25 03:39:23;;;;;;;10.67;5.03;;;;;;;8.66;83.03;98536.25;5070575;28;20543;-78
2023/05/25 03:41:50;;;;;;;12.90;4.20;;;;;;;8.61;83.50;98533.00;5071275;28;20211;-77
2023/05/25 03:44:16;;;;;;;9.20;4.30;;;;;;;8.61;84.10;98544.41;5071460;28;20208;-78
2023/05/25 03:46:43;;;;;;;10.40;4.27;;;;;;;8.59;84.00;98538.41;5071292;28;20227;-78
2023/05/25 03:49:12;;;;;;;8.00;4.17;;;;;;;8.59;84.48;98543.66;5070408;28;20204;-78
2023/05/25 03:51:39;;;;;;;8.33;3.80;;;;;;;8.59;84.49;98540.16;5071061;28;20230;-78
2023/05/25 03:54:07;;;;;;;10.13;3.90;;;;;;;8.59;84.43;98540.16;5071075;28;20328;-78
2023/05/25 03:56:34;;;;;;;8.47;4.10;;;;;;;8.60;84.16;98541.84;5070952;28;20227;-78
2023/05/25 03:59:00;;;;;;;8.03;4.30;;;;;;;8.77;82.88;98541.78;5070981;28;20225;-78
2023/05/25 04:01:28;;;;;;;8.03;3.70;;;;;;;8.78;82.75;98540.84;5070797;28;20199;-77
2023/05/25 04:03:55;;;;;;;11.07;4.67;;;;;;;8.86;82.06;98538.63;5071301;28;20207;-78
2023/05/25 04:06:24;;;;;;;8.93;3.70;;;;;;;8.91;81.33;98542.72;5070836;28;20226;-78
2023/05/25 04:08:50;;;;;;;7.23;4.00;;;;;;;8.84;82.02;98546.63;5070850;28;20207;-78
2023/05/25 04:11:18;;;;;;;7.63;3.90;;;;;;;8.80;82.65;98549.50;5070098;28;20231;-78
2023/05/25 04:13:45;;;;;;;7.43;4.27;;;;;;;8.88;82.70;98553.41;5071163;28;20589;-78
2023/05/25 04:16:12;;;;;;;7.27;4.37;;;;;;;9.00;81.88;98546.63;5071259;28;20227;-78
2023/05/25 04:18:38;;;;;;;11.13;4.50;;;;;;;9.04;82.08;98548.13;5071216;28;20215;-77
2023/05/25 04:21:05;;;;;;;7.03;4.40;;;;;;;9.07;81.98;98558.53;5070260;28;20203;-78
2023/05/25 04:23:32;;;;;;;9.50;4.20;;;;;;;9.20;81.02;98552.47;5070944;28;20673;-78
2023/05/25 04:25:59;;;;;;;7.10;4.30;;;;;;;9.21;80.71;98554.19;5070919;28;20269;-78
2023/05/25 04:28:27;;;;;;;6.60;4.17;;;;;;;9.29;80.73;98540.53;5072790;28;20730;-80
2023/05/25 04:30:55;;;;;;;9.37;3.73;;;;;;;9.32;80.72;98548.28;5074112;28;20229;-78
2023/05/25 04:33:22;;;;;;;7.80;4.50;;;;;;;9.37;80.43;98546.22;5074849;28;20207;-78
2023/05/25 04:35:49;;;;;;;9.83;4.40;;;;;;;9.37;80.30;98541.78;5074584;28;20614;-80
2023/05/25 04:38:16;;;;;;;6.83;4.10;;;;;;;9.46;80.40;98550.97;5074627;28;20309;-78
2023/05/25 04:40:45;;;;;;;8.33;4.10;;;;;;;9.48;79.87;98538.56;5073909;28;20209;-80
2023/05/25 04:43:12;;;;;;;12.27;4.50;;;;;;;9.61;79.79;98542.16;5075002;28;20242;-78
2023/05/25 04:45:40;;;;;;;8.10;3.57;;;;;;;9.77;79.35;98556.13;5074441;28;20316;-78
2023/05/25 04:48:06;;;;;;;8.57;4.47;;;;;;;9.73;79.49;98552.00;5074628;28;20225;-78
2023/05/25 04:50:33;;;;;;;7.53;3.93;;;;;;;9.70;79.48;98552.16;5073729;28;20211;-78
2023/05/25 04:52:59;;;;;;;8.20;4.00;;;;;;;9.76;79.59;98559.72;5074757;28;20211;-78
2023/05/25 04:55:26;;;;;;;7.57;3.80;;;;;;;9.83;79.92;98566.34;5074578;28;20268;-78
2023/05/25 04:57:58;;;;;;;7.87;4.07;;;;;;;9.89;79.14;98565.97;5074406;28;20584;-78
2023/05/25 05:00:25;;;;;;;9.43;4.17;;;;;;;9.96;79.71;98559.38;5073721;28;20680;-79
2023/05/25 05:02:55;;;;;;;10.57;4.27;;;;;;;10.19;79.12;98572.09;5074363;28;20596;-78
2023/05/25 05:05:21;;;;;;;8.47;4.07;;;;;;;10.33;77.96;98556.25;5074117;28;20252;-78
2023/05/25 05:07:48;;;;;;;9.77;4.13;;;;;;;10.49;76.89;98546.41;5074614;28;20231;-78
2023/05/25 05:10:14;;;;;;;10.87;4.20;;;;;;;10.66;76.76;98541.81;5073947;28;20209;-79
2023/05/25 05:12:41;;;;;;;10.97;4.30;;;;;;;11.01;73.94;98534.25;5074320;28;20602;-78
2023/05/25 05:15:08;;;;;;;7.97;3.80;;;;;;;11.47;72.47;98527.63;5074472;28;20214;-78
2023/05/25 05:17:36;;;;;;;8.57;3.80;;;;;;;11.93;69.02;98523.63;5074314;28;20700;-80
2023/05/25 05:20:07;;;;;;;7.30;3.97;;;;;;;12.35;67.13;98520.66;5073153;28;20209;-78
2023/05/25 05:22:33;;;;;;;8.77;3.70;;;;;;;12.71;65.27;98515.41;5073722;28;20215;-78
2023/05/25 05:25:00;;;;;;;13.27;4.63;;;;;;;13.01;64.36;98521.19;5073865;28;20286;-78
2023/05/25 05:27:27;;;;;;;10.37;4.10;;;;;;;13.35;63.33;98520.38;5073579;28;20232;-78
2023/05/25 05:29:53;;;;;;;9.87;3.97;;;;;;;13.66;62.71;98522.44;5073159;28;20295;-78
2023/05/25 05:32:20;;;;;;;6.93;4.00;;;;;;;14.03;61.95;98519.53;5073111;28;20235;-78
2023/05/25 05:34:46;;;;;;;9.60;4.00;;;;;;;14.13;60.13;98512.53;5073761;28;20213;-78
2023/05/25 05:37:14;;;;;;;12.13;4.30;;;;;;;14.15;59.15;98509.75;5073528;28;20228;-78
2023/05/25 05:39:44;;;;;;;8.60;4.10;;;;;;;14.17;59.76;98508.69;5071722;28;20217;-77
2023/05/25 05:42:10;;;;;;;13.47;4.10;;;;;;;14.01;59.35;98507.34;5073216;28;20224;-77
2023/05/25 05:44:36;;;;;;;8.67;3.70;;;;;;;14.08;60.74;98519.19;5073718;28;20212;-76
2023/05/25 05:47:03;;;;;;;10.80;4.87;;;;;;;13.85;60.16;98514.78;5073043;28;20245;-76
2023/05/25 05:49:30;;;;;;;9.77;4.20;;;;;;;13.85;60.76;98528.06;5072528;28;20222;-76
2023/05/25 05:51:57;;;;;;;9.80;4.67;;;;;;;13.92;60.40;98530.13;5073316;28;20224;-77
2023/05/25 05:54:26;;;;;;;10.47;4.57;;;;;;;13.82;60.67;98536.28;5073036;28;20204;-76
2023/05/25 05:56:53;;;;;;;9.17;4.27;;;;;;;13.79;60.43;98520.56;5073085;28;20292;-77
2023/05/25 05:59:21;;;;;;;9.80;4.17;;;;;;;13.84;62.15;98548.50;5072311;28;20216;-77
2023/05/25 06:01:47;;;;;;;8.30;3.70;;;;;;;14.16;61.12;98543.34;5072981;28;20207;-77
2023/05/25 06:04:14;;;;;;;7.90;4.23;;;;;;;14.28;59.46;98537.13;5073059;28;20221;-78
2023/05/25 06:06:42;;;;;;;9.87;4.30;;;;;;;14.41;59.31;98543.16;5073165;28;20592;-77
2023/05/25 06:09:08;;;;;;;8.00;3.90;;;;;;;14.54;59.74;98560.72;5072334;28;20631;-78
2023/05/25 06:11:38;;;;;;;9.03;4.23;;;;;;;14.50;59.32;98543.31;5072750;28;20282;-78
2023/05/25 06:14:05;;;;;;;10.10;4.37;;;;;;;14.69;59.42;98553.34;5072647;28;20233;-78
2023/05/25 06:16:32;;;;;;;10.97;4.27;;;;;;;14.73;58.82;98544.16;5072810;28;20667;-78
2023/05/25 06:18:58;;;;;;;6.83;4.20;;;;;;;14.79;59.71;98559.66;5072660;28;20214;-77
2023/05/25 06:21:25;;;;;;;10.43;4.47;;;;;;;14.74;58.42;98545.84;5071791;28;20210;-77
2023/05/25 06:23:51;;;;;;;9.30;4.67;;;;;;;14.97;58.70;98563.50;5072621;28;20589;-79
2023/05/25 06:26:17;;;;;;;11.37;4.23;;;;;;;15.13;57.54;98545.31;5072117;28;20610;-77
2023/05/25 06:28:47;;;;;;;9.57;4.50;;;;;;;15.22;57.64;98549.91;5072581;28;20206;-78
2023/05/25 06:31:14;;;;;;;9.07;4.23;;;;;;;15.41;57.24;98540.31;5071857;28;20427;-78
2023/05/25 06:33:40;;;;;;;12.50;4.60;;;;;;;15.70;57.86;98556.56;5071088;28;20210;-78
2023/05/25 06:36:08;;;;;;;7.00;4.27;;;;;;;15.76;56.42;98537.41;5070186;28;20238;-78
2023/05/25 06:38:35;;;;;;;8.67;4.20;;;;;;;15.96;56.09;98531.25;5069131;28;20217;-78
2023/05/25 06:41:03;;;;;;;10.33;4.83;;;;;;;15.87;56.82;98548.84;5068638;28;20595;-77
2023/05/25 06:43:30;;;;;;;8.57;4.40;;;;;;;15.87;57.14;98556.00;5069815;28;20210;-77
2023/05/25 06:45:59;;;;;;;8.90;4.80;;;;;;;15.91;57.69;98563.63;5069635;28;20235;-77
2023/05/25 06:48:25;;;;;;;6.77;4.20;;;;;;;15.96;56.08;98539.22;5072031;28;20210;-77
2023/05/25 06:50:51;;;;;;;7.33;4.53;;;;;;;15.95;56.64;98542.88;5070738;28;20225;-77
2023/05/25 06:53:18;;;;;;;10.17;4.70;;;;;;;15.52;58.14;98561.59;5069415;28;20247;-77
2023/05/25 06:55:44;;;;;;;9.30;5.17;;;;;;;15.08;59.13;98563.47;5068732;28;20230;-77
2023/05/25 06:58:12;;;;;;;9.57;5.07;;;;;;;14.76;60.02;98583.81;5069624;28;20212;-77
2023/05/25 07:00:38;;;;;;;8.90;5.27;;;;;;;14.55;60.77;98582.84;5069019;28;20696;-76
2023/05/25 07:03:06;;;;;;;9.90;4.73;;;;;;;14.45;61.84;98598.69;5070721;28;20211;-79
2023/05/25 07:05:32;;;;;;;8.53;5.07;;;;;;;14.33;62.02;98599.63;5069912;28;20713;-80
2023/05/25 07:07:59;;;;;;;9.03;4.97;;;;;;;14.25;63.57;98604.66;5071001;28;20237;-79
2023/05/25 07:10:25;;;;;;;10.70;4.83;;;;;;;14.23;64.43;98621.72;5069753;28;20261;-79
2023/05/25 07:12:52;;;;;;;7.87;5.00;;;;;;;14.28;64.61;98623.06;5070142;28;20229;-79
2023/05/25 07:15:20;;;;;;;11.20;5.40;;;;;;;14.27;63.71;98620.50;5070884;28;20214;-80
2023/05/25 07:17:47;;;;;;;9.00;4.97;;;;;;;14.25;64.83;98615.31;5071257;28;20210;-80
2023/05/25 07:20:15;;;;;;;9.83;5.20;;;;;;;14.19;63.73;98606.97;5069659;28;20252;-80
2023/05/25 07:22:42;;;;;;;10.53;5.40;;;;;;;14.32;64.73;98613.03;5070262;28;20211;-80
2023/05/25 07:25:09;;;;;;;13.47;5.87;;;;;;;14.49;65.70;98625.91;5070753;28;20304;-79
2023/05/25 07:27:36;;;;;;;10.13;5.30;;;;;;;14.49;64.41;98620.56;5068073;28;20218;-79
2023/05/25 07:30:02;;;;;;;9.77;5.03;;;;;;;14.46;65.20;98621.66;5069528;28;20210;-80
2023/05/25 07:32:29;;;;;;;9.53;4.97;;;;;;;14.60;65.91;98633.91;5070120;28;20695;-80
2023/05/25 07:34:55;;;;;;;12.40;6.10;;;;;;;14.60;64.19;98617.94;5069435;28;20214;-80
2023/05/25 07:37:23;;;;;;;9.47;5.30;;;;;;;14.76;64.70;98632.59;5070214;28;20336;-80
2023/05/25 07:39:49;;;;;;;11.67;5.43;;;;;;;14.66;64.73;98628.94;5069580;28;20266;-80
2023/05/25 07:42:19;;;;;;;10.20;4.97;;;;;;;14.69;64.69;98627.84;5069136;28;20221;-80
2023/05/25 07:44:46;;;;;;;12.40;5.53;;;;;;;14.71;64.27;98624.09;5069993;28;20628;-80
2023/05/25 07:47:12;;;;;;;9.20;5.23;;;;;;;14.86;65.92;98643.34;5070187;28;20233;-80
2023/05/25 07:49:39;;;;;;;8.90;4.90;;;;;;;15.01;65.66;98635.00;5068607;28;20205;-79
2023/05/25 07:52:06;;;;;;;10.33;4.97;;;;;;;15.14;64.35;98621.56;5069624;28;20230;-80
2023/05/25 07:54:33;;;;;;;14.10;5.73;;;;;;;15.14;63.06;98613.56;5069253;28;20248;-79
2023/05/25 07:57:00;;;;;;;11.93;6.00;;;;;;;15.14;63.00;98613.56;5068087;28;20236;-81
2023/05/25 07:59:27;;;;;;;11.13;5.23;;;;;;;15.08;63.60;98619.38;5066859;28;20741;-79
2023/05/25 08:01:53;;;;;;;10.17;5.43;;;;;;;15.22;65.88;98648.44;5066797;28;20544;-78
2023/05/25 08:04:20;;;;;;;11.63;5.37;;;;;;;15.46;65.85;98642.00;5065975;28;20210;-75
2023/05/25 08:06:46;;;;;;;10.27;5.90;;;;;;;15.87;64.79;98635.97;5069424;28;20239;-76
2023/05/25 08:09:13;;;;;;;13.00;5.43;;;;;;;15.98;62.47;98618.94;5068760;28;20704;-77
2023/05/25 08:11:43;;;;;;;12.17;5.67;;;;;;;16.24;60.87;98603.44;5068719;28;20554;-76
2023/05/25 08:14:09;;;;;;;12.80;5.63;;;;;;;16.40;62.79;98627.88;5069618;28;20317;-76
2023/05/25 08:16:36;;;;;;;13.60;6.50;;;;;;;16.47;61.99;98616.53;5069552;28;20241;-78
2023/05/25 08:19:02;;;;;;;14.17;5.97;;;;;;;16.58;62.52;98616.47;5068405;28;20263;-76
2023/05/25 08:21:29;;;;;;;9.13;5.60;;;;;;;16.86;62.39;98618.47;5068671;28;20218;-76
2023/05/25 08:23:55;;;;;;;12.87;5.63;;;;;;;16.80;60.04;98596.78;5069457;28;20253;-76
2023/05/25 08:26:22;;;;;;;14.23;6.50;;;;;;;16.71;60.75;98613.59;5068546;28;20943;-76
2023/05/25 08:28:50;;;;;;;11.43;6.03;;;;;;;16.56;60.50;98605.09;5069476;28;20207;-76
2023/05/25 08:31:16;;;;;;;12.60;6.10;;;;;;;16.47;62.52;98632.53;5068538;28;20697;-76
2023/05/25 08:33:43;;;;;;;12.53;6.03;;;;;;;16.62;64.07;98644.59;5068633;28;20235;-76
2023/05/25 08:36:10;;;;;;;10.10;6.37;;;;;;;16.71;59.55;98602.94;5069652;28;20238;-76
2023/05/25 08:38:36;;;;;;;11.40;6.60;;;;;;;16.67;60.53;98617.50;5069593;28;20215;-76
2023/05/25 08:41:05;;;;;;;10.30;6.33;;;;;;;16.72;61.77;98632.16;5067796;28;20613;-76
2023/05/25 08:43:32;;;;;;;14.17;6.37;;;;;;;16.93;62.52;98646.31;5069318;28;20223;-77
2023/05/25 08:46:04;;;;;;;12.17;6.13;;;;;;;17.28;62.34;98638.75;5069227;28;20220;-76
2023/05/25 08:48:34;;;;;;;14.43;6.63;;;;;;;17.53;59.71;98624.94;5068976;28;20261;-76
2023/05/25 08:51:04;;;;;;;9.53;6.30;;;;;;;17.54;61.22;98629.28;5068702;28;20305;-76
2023/05/25 08:53:35;;;;;;;9.30;6.67;;;;;;;17.77;59.29;98612.03;5069362;28;20705;-76
2023/05/25 08:56:03;;;;;;;12.43;6.53;;;;;;;17.85;60.39;98630.88;5069095;28;20746;-76
2023/05/25 08:58:34;;;;;;;8.93;6.10;;;;;;;18.01;58.00;98606.25;5069103;28;20207;-76
2023/05/25 09:01:06;;;;;;;11.33;6.83;;;;;;;18.13;59.19;98614.03;5068653;28;20218;-75
2023/05/25 09:03:33;;;;;;;11.97;6.10;;;;;;;18.30;57.53;98589.19;5068103;28;20693;-75
2023/05/25 09:06:00;;;;;;;12.50;6.37;;;;;;;18.17;57.10;98583.31;5068865;28;20322;-75
2023/05/25 09:08:27;;;;;;;11.03;5.97;;;;;;;18.18;60.51;98622.47;5069160;28;20231;-76
2023/05/25 09:10:56;;;;;;;9.07;6.33;;;;;;;18.36;59.75;98610.06;5067367;28;20208;-76
2023/05/25 09:13:22;;;;;;;10.40;6.60;;;;;;;18.47;60.16;98622.47;5069125;28;20239;-76
2023/05/25 09:15:49;;;;;;;9.30;5.93;;;;;;;18.58;57.64;98591.03;5071321;28;20227;-76
2023/05/25 09:18:17;;;;;;;10.53;6.00;;;;;;;18.58;60.56;98620.47;5071504;28;20215;-75
2023/05/25 09:20:44;;;;;;;10.87;6.20;;;;;;;18.69;57.68;98590.00;5072130;28;20721;-76
2023/05/25 09:23:11;;;;;;;9.47;6.00;;;;;;;18.56;56.03;98576.09;5072058;28;20203;-76
2023/05/25 09:28:08;;;;;;;9.67;5.87;;;;;;;18.57;58.36;98597.38;5069681;28;20219;-78
2023/05/25 09:30:35;;;;;;;9.93;6.07;;;;;;;18.44;56.93;98586.13;5071440;28;20207;-78
2023/05/25 09:33:11;;;;;;;12.30;6.27;;;;;;;18.41;58.02;98601.63;5074381;28;20258;-78
2023/05/25 09:35:40;;;;;;;9.03;6.10;;;;;;;18.52;57.76;98610.34;5073022;28;20211;-78
2023/05/25 09:38:07;;;;;;;12.13;6.07;;;;;;;18.66;56.96;98601.84;5071382;28;20218;-78
2023/05/25 09:40:34;;;;;;;9.83;5.80;;;;;;;18.75;58.12;98614.38;5070540;28;20220;-78
2023/05/25 09:43:02;;;;;;;11.83;5.70;;;;;;;18.76;56.70;98601.81;5071502;28;20585;-78
2023/05/25 09:45:28;;;;;;;10.37;6.17;;;;;;;18.89;59.11;98629.97;5073759;28;20211;-78
2023/05/25 09:47:56;;;;;;;10.03;6.30;;;;;;;19.08;57.36;98619.19;5073984;28;20239;-78
2023/05/25 09:50:22;;;;;;;10.07;5.93;;;;;;;19.19;57.20;98615.50;5071087;28;20222;-78
2023/05/25 09:52:52;;;;;;;12.27;5.70;;;;;;;19.26;56.29;98606.72;5070887;28;20239;-78
2023/05/25 09:55:18;;;;;;;11.77;6.27;;;;;;;19.42;57.74;98619.50;5070975;28;20203;-78
2023/05/25 09:57:45;;;;;;;10.27;6.27;;;;;;;19.58;57.85;98620.50;5071711;28;20254;-78
2023/05/25 10:00:13;;;;;;;8.87;5.80;;;;;;;19.61;57.94;98622.91;5072732;28;20306;-78
2023/05/25 10:02:41;;;;;;;9.40;5.67;;;;;;;19.92;59.94;98653.78;5072283;28;20304;-78
2023/05/25 10:05:08;;;;;;;10.97;6.37;;;;;;;20.11;58.09;98621.44;5070108;28;20227;-78
2023/05/25 10:07:37;;;;;;;9.53;6.23;;;;;;;20.10;59.65;98635.03;5070216;28;20231;-78
2023/05/25 10:10:07;;;;;;;8.40;5.77;;;;;;;20.32;59.00;98634.56;5069455;28;20211;-78
2023/05/25 10:12:34;;;;;;;14.20;5.80;;;;;;;20.48;55.73;98602.50;5073209;28;20211;-79
2023/05/25 10:15:04;;;;;;;8.10;5.60;;;;;;;20.43;56.08;98605.63;5073020;28;20697;-81
2023/05/25 10:17:32;;;;;;;10.57;5.60;;;;;;;20.18;55.52;98595.69;5072924;28;20717;-79
2023/05/25 10:20:00;;;;;;;9.07;5.53;;;;;;;20.14;57.31;98621.16;5072178;28;20279;-79
2023/05/25 10:22:33;;;;;;;12.40;6.00;;;;;;;20.17;56.19;98604.72;5073138;28;20210;-79
2023/05/25 10:25:08;;;;;;;9.93;5.70;;;;;;;20.11;55.85;98599.16;5072970;28;20207;-78
2023/05/25 10:27:39;;;;;;;8.43;5.80;;;;;;;20.02;60.56;98641.13;5072784;28;20238;-78
2023/05/25 10:30:08;;;;;;;7.77;5.23;;;;;;;20.15;61.23;98644.31;5072157;28;20218;-77
2023/05/25 10:32:36;;;;;;;8.37;6.00;;;;;;;20.08;54.96;98586.88;5072067;28;20272;-79
2023/05/25 10:35:04;;;;;;;9.67;5.93;;;;;;;20.09;56.57;98602.00;5072866;28;20591;-76
2023/05/25 10:37:33;;;;;;;9.40;6.07;;;;;;;20.04;56.57;98606.06;5072838;28;20258;-76
2023/05/25 10:40:00;;;;;;;9.23;5.67;;;;;;;19.71;56.01;98591.53;5071801;28;20211;-76
2023/05/25 10:42:28;;;;;;;9.20;5.50;;;;;;;19.76;59.09;98626.75;5072541;28;20666;-76
2023/05/25 10:44:56;;;;;;;8.17;5.40;;;;;;;19.95;59.23;98610.56;5072242;28;20253;-76
2023/05/25 10:47:23;;;;;;;7.87;5.20;;;;;;;19.99;58.17;98617.28;5072378;28;20265;-76
2023/05/25 10:49:55;;;;;;;7.97;5.47;;;;;;;19.99;58.25;98611.09;5071364;28;20666;-76
2023/05/25 10:52:21;;;;;;;9.00;5.43;;;;;;;20.07;56.49;98601.31;5072096;28;20329;-77
2023/05/25 10:54:48;;;;;;;8.80;5.70;;;;;;;20.28;58.13;98612.56;5072193;28;20211;-76
2023/05/25 10:57:19;;;;;;;7.53;5.10;;;;;;;20.33;58.19;98621.00;5071958;28;20223;-76
2023/05/25 10:59:53;;;;;;;8.27;5.57;;;;;;;20.46;57.62;98610.69;5071998;28;20518;-77
2023/05/25 11:02:22;;;;;;;7.47;5.23;;;;;;;20.69;55.28;98594.91;5072155;28;20230;-78
2023/05/25 11:04:49;;;;;;;6.53;5.20;;;;;;;20.64;53.84;98578.41;5072185;28;20203;-78
2023/05/25 11:07:18;;;;;;;8.53;5.80;;;;;;;20.56;53.76;98579.22;5069551;28;20237;-83
2023/05/25 11:09:57;;;;;;;7.13;4.93;;;;;;;20.36;54.48;98588.44;5070717;28;20218;-84
2023/05/25 11:12:23;;;;;;;9.80;5.47;;;;;;;20.49;56.62;98609.53;5068323;28;20199;-84
2023/05/25 11:15:14;;;;;;;8.73;5.57;;;;;;;20.59;54.44;98583.41;5069234;28;20222;-84
2023/05/25 11:17:59;;;;;;;12.90;5.70;;;;;;;20.54;54.68;98589.25;5069184;28;20231;-83
2023/05/25 11:20:28;;;;;;;10.37;5.70;;;;;;;20.58;54.40;98590.66;5070417;28;20208;-83
2023/05/25 11:22:57;;;;;;;9.33;5.60;;;;;;;20.64;52.37;98562.31;5071905;28;20203;-84
2023/05/25 11:25:38;;;;;;;7.27;5.47;;;;;;;20.63;51.19;98548.03;5071892;28;20207;-84
2023/05/25 11:28:06;;;;;;;6.97;5.10;;;;;;;20.71;52.52;98561.50;5071712;28;20218;-84
2023/05/25 11:30:35;;;;;;;8.80;5.60;;;;;;;20.81;54.24;98589.13;5070935;28;20239;-83
2023/05/25 11:33:02;;;;;;;9.43;5.83;;;;;;;21.02;51.99;98562.72;5071541;28;20234;-83
2023/05/25 11:35:32;;;;;;;8.77;5.70;;;;;;;21.42;55.16;98597.00;5071821;28;20689;-84
2023/05/25 11:37:59;;;;;;;11.83;6.00;;;;;;;21.54;49.71;98541.91;5071197;28;20210;-83
2023/05/25 11:40:29;;;;;;;7.00;5.20;;;;;;;21.59;48.90;98523.44;5070858;28;20245;-84